Airfield :
LOGIN :

Register | Disclaimer

   EN    FR    IT 

 










Legend :    VFR   Marginal VFR   IFR   Intensive IFR   Very Intensive IFR
Visi :
Ceiling :
>= 8 km
>= 3000ft
5 to 8 km
1000 to 3000 ft
1500m to 5 km
500 to 1000 ft
800 to 1500m
200 to 500 ft
< 800m
< 200 ft
Symbols :   Thunderstorms  Fog  Heavy snow  Heavy precipitations  Wind > 20 kt
SIGMETs :     Misc.  Thunderstorms  Icing  Turbulence  Mountain Waves  Volcanic Ashes






- Airport Elevation : 1910 ft
- IATA code : RDZ


LFCR - Rodez

CURRENT METAR :
  • 301330Z AUTO 31003KT 280V350 CAVOK 07/04 Q1016 NOSIG

EXPIRED METARs :
  • 301300Z AUTO VRB03KT 9999 FEW007 05/04 Q1016 TEMPO 4000 BR BKN002
  • 301230Z AUTO 31003KT 270V330 9999 SCT006 05/04 Q1017 TEMPO 4000 BR BKN002
  • 301200Z AUTO VRB02KT 9999 BKN005 05/04 Q1017 TEMPO 4000 BR VV///
  • 301130Z AUTO VRB02KT 9999 OVC003 04/04 Q1017 BECMG NSC
  • 301100Z AUTO VRB02KT 1600 BR VV/// 04/04 Q1017 BECMG CAVOK

TAF TAF LFCR
Valid from the 30 at 12:00 until the 01 at 12:00 UTC


301100Z 3012/0112 VRB03KT CAVOK
TEMPO 3012/3014 4000 BR BKN002
PROB40
TEMPO 3012/3013 0600 FG VV///
PROB30
TEMPO 3019/0108 4000 BR



MET'MAP, your aeronautical weather chart ! - Copyright ORBIFLY December 2007 - Disclaimer

ORBIFLY MET'MAP TEAM :

Programming & Development : Alexandra Zaïnal
Original concept : Baudouin d'Aumeries
Technical & hardware support : Manuel Goepfert
Assistance : Marc-Olivier Méhu




SOURCES & CREDITS :

   NOAA